sensor_id;sensor_type;location;lat;lon;timestamp;P1;durP1;ratioP1;P2;durP2;ratioP2
11086;SDS011;5597;47.588;9.642;2023-05-29T00:08:15;8.70;;;5.20;;
11086;SDS011;5597;47.588;9.642;2023-05-29T00:10:41;8.13;;;4.70;;
11086;SDS011;5597;47.588;9.642;2023-05-29T00:13:06;7.33;;;5.17;;
11086;SDS011;5597;47.588;9.642;2023-05-29T00:15:32;7.40;;;5.10;;
11086;SDS011;5597;47.588;9.642;2023-05-29T00:17:57;6.07;;;4.83;;
11086;SDS011;5597;47.588;9.642;2023-05-29T00:20:23;8.07;;;5.10;;
11086;SDS011;5597;47.588;9.642;2023-05-29T00:22:49;5.57;;;4.73;;
11086;SDS011;5597;47.588;9.642;2023-05-29T00:25:14;7.17;;;4.90;;
11086;SDS011;5597;47.588;9.642;2023-05-29T00:27:40;8.47;;;5.10;;
11086;SDS011;5597;47.588;9.642;2023-05-29T00:30:06;6.80;;;5.50;;
11086;SDS011;5597;47.588;9.642;2023-05-29T00:32:32;7.23;;;4.90;;
11086;SDS011;5597;47.588;9.642;2023-05-29T00:34:58;6.50;;;4.70;;
11086;SDS011;5597;47.588;9.642;2023-05-29T00:37:23;6.10;;;4.90;;
11086;SDS011;5597;47.588;9.642;2023-05-29T00:39:49;8.30;;;5.37;;
11086;SDS011;5597;47.588;9.642;2023-05-29T00:42:15;8.27;;;5.20;;
11086;SDS011;5597;47.588;9.642;2023-05-29T00:44:40;8.20;;;5.13;;
11086;SDS011;5597;47.588;9.642;2023-05-29T00:47:06;6.27;;;5.00;;
11086;SDS011;5597;47.588;9.642;2023-05-29T00:49:32;9.77;;;5.23;;
11086;SDS011;5597;47.588;9.642;2023-05-29T00:52:00;6.83;;;4.70;;
11086;SDS011;5597;47.588;9.642;2023-05-29T00:54:28;8.10;;;5.27;;
11086;SDS011;5597;47.588;9.642;2023-05-29T00:56:55;8.07;;;5.50;;
11086;SDS011;5597;47.588;9.642;2023-05-29T00:59:22;6.63;;;5.30;;
11086;SDS011;5597;47.588;9.642;2023-05-29T01:01:51;6.23;;;5.10;;
11086;SDS011;5597;47.588;9.642;2023-05-29T01:04:17;7.10;;;4.70;;
11086;SDS011;5597;47.588;9.642;2023-05-29T01:06:46;5.87;;;4.83;;
11086;SDS011;5597;47.588;9.642;2023-05-29T01:09:11;9.07;;;5.00;;
11086;SDS011;5597;47.588;9.642;2023-05-29T01:14:14;5.87;;;4.97;;
11086;SDS011;5597;47.588;9.642;2023-05-29T01:16:58;7.67;;;5.10;;
11086;SDS011;5597;47.588;9.642;2023-05-29T01:19:46;6.53;;;5.00;;
11086;SDS011;5597;47.588;9.642;2023-05-29T01:28:20;6.37;;;4.60;;
11086;SDS011;5597;47.588;9.642;2023-05-29T01:30:49;6.80;;;4.60;;
11086;SDS011;5597;47.588;9.642;2023-05-29T01:33:15;7.17;;;5.07;;
11086;SDS011;5597;47.588;9.642;2023-05-29T01:35:41;6.57;;;5.30;;
11086;SDS011;5597;47.588;9.642;2023-05-29T01:38:06;8.17;;;5.20;;
11086;SDS011;5597;47.588;9.642;2023-05-29T01:40:32;5.90;;;4.63;;
11086;SDS011;5597;47.588;9.642;2023-05-29T01:42:57;5.63;;;4.90;;
11086;SDS011;5597;47.588;9.642;2023-05-29T01:45:23;5.27;;;4.40;;
11086;SDS011;5597;47.588;9.642;2023-05-29T01:47:49;5.83;;;4.60;;
11086;SDS011;5597;47.588;9.642;2023-05-29T01:50:15;4.97;;;4.23;;
11086;SDS011;5597;47.588;9.642;2023-05-29T01:52:43;6.37;;;4.33;;
11086;SDS011;5597;47.588;9.642;2023-05-29T01:55:09;5.53;;;4.43;;
11086;SDS011;5597;47.588;9.642;2023-05-29T01:57:34;5.77;;;4.00;;
11086;SDS011;5597;47.588;9.642;2023-05-29T02:00:02;6.43;;;4.30;;
11086;SDS011;5597;47.588;9.642;2023-05-29T02:02:35;5.60;;;4.40;;
11086;SDS011;5597;47.588;9.642;2023-05-29T02:05:02;6.63;;;4.57;;
11086;SDS011;5597;47.588;9.642;2023-05-29T02:07:28;5.93;;;4.60;;
11086;SDS011;5597;47.588;9.642;2023-05-29T02:09:53;6.30;;;4.40;;
11086;SDS011;5597;47.588;9.642;2023-05-29T02:12:19;6.00;;;4.83;;
11086;SDS011;5597;47.588;9.642;2023-05-29T02:14:44;5.90;;;4.53;;
11086;SDS011;5597;47.588;9.642;2023-05-29T02:17:11;5.10;;;4.07;;
11086;SDS011;5597;47.588;9.642;2023-05-29T02:19:37;6.20;;;4.50;;
11086;SDS011;5597;47.588;9.642;2023-05-29T02:22:02;5.57;;;4.33;;
11086;SDS011;5597;47.588;9.642;2023-05-29T02:24:28;6.40;;;4.73;;
11086;SDS011;5597;47.588;9.642;2023-05-29T02:26:54;5.57;;;4.43;;
11086;SDS011;5597;47.588;9.642;2023-05-29T02:29:20;5.17;;;4.50;;
11086;SDS011;5597;47.588;9.642;2023-05-29T02:31:45;6.83;;;4.40;;
11086;SDS011;5597;47.588;9.642;2023-05-29T02:34:11;6.10;;;4.80;;
11086;SDS011;5597;47.588;9.642;2023-05-29T02:36:36;8.30;;;4.70;;
11086;SDS011;5597;47.588;9.642;2023-05-29T02:39:03;6.67;;;5.33;;
11086;SDS011;5597;47.588;9.642;2023-05-29T02:41:30;6.10;;;4.80;;
11086;SDS011;5597;47.588;9.642;2023-05-29T02:43:55;5.43;;;4.50;;
11086;SDS011;5597;47.588;9.642;2023-05-29T02:46:21;7.03;;;5.23;;
11086;SDS011;5597;47.588;9.642;2023-05-29T02:48:47;8.27;;;5.10;;
11086;SDS011;5597;47.588;9.642;2023-05-29T02:51:13;6.30;;;4.20;;
11086;SDS011;5597;47.588;9.642;2023-05-29T02:53:38;6.13;;;4.83;;
11086;SDS011;5597;47.588;9.642;2023-05-29T02:56:05;6.50;;;5.10;;
11086;SDS011;5597;47.588;9.642;2023-05-29T02:58:33;6.93;;;5.20;;
11086;SDS011;5597;47.588;9.642;2023-05-29T03:01:00;5.93;;;5.20;;
11086;SDS011;5597;47.588;9.642;2023-05-29T03:03:27;7.70;;;5.07;;
11086;SDS011;5597;47.588;9.642;2023-05-29T03:05:53;5.83;;;4.33;;
11086;SDS011;5597;47.588;9.642;2023-05-29T03:08:18;8.80;;;5.10;;
11086;SDS011;5597;47.588;9.642;2023-05-29T03:10:44;6.03;;;5.03;;
11086;SDS011;5597;47.588;9.642;2023-05-29T03:13:10;7.73;;;5.40;;
11086;SDS011;5597;47.588;9.642;2023-05-29T03:15:35;6.53;;;4.50;;
11086;SDS011;5597;47.588;9.642;2023-05-29T03:18:01;8.47;;;4.87;;
11086;SDS011;5597;47.588;9.642;2023-05-29T03:20:26;6.57;;;5.43;;
11086;SDS011;5597;47.588;9.642;2023-05-29T03:22:53;6.60;;;4.93;;
11086;SDS011;5597;47.588;9.642;2023-05-29T03:25:19;7.80;;;5.40;;
11086;SDS011;5597;47.588;9.642;2023-05-29T03:27:46;9.57;;;4.90;;
11086;SDS011;5597;47.588;9.642;2023-05-29T03:30:11;6.07;;;4.90;;
11086;SDS011;5597;47.588;9.642;2023-05-29T03:32:37;7.80;;;5.27;;
11086;SDS011;5597;47.588;9.642;2023-05-29T03:35:03;6.03;;;4.83;;
11086;SDS011;5597;47.588;9.642;2023-05-29T03:37:29;6.97;;;5.37;;
11086;SDS011;5597;47.588;9.642;2023-05-29T03:39:55;7.97;;;5.43;;
11086;SDS011;5597;47.588;9.642;2023-05-29T03:42:20;8.40;;;5.43;;
11086;SDS011;5597;47.588;9.642;2023-05-29T03:44:46;6.93;;;5.37;;
11086;SDS011;5597;47.588;9.642;2023-05-29T03:47:12;6.77;;;4.83;;
11086;SDS011;5597;47.588;9.642;2023-05-29T03:49:37;8.10;;;5.67;;
11086;SDS011;5597;47.588;9.642;2023-05-29T03:52:03;9.53;;;5.30;;
11086;SDS011;5597;47.588;9.642;2023-05-29T03:54:29;5.87;;;4.67;;
11086;SDS011;5597;47.588;9.642;2023-05-29T03:56:55;7.87;;;5.47;;
11086;SDS011;5597;47.588;9.642;2023-05-29T03:59:20;7.03;;;4.93;;
11086;SDS011;5597;47.588;9.642;2023-05-29T04:01:46;7.23;;;5.10;;
11086;SDS011;5597;47.588;9.642;2023-05-29T04:04:12;8.27;;;5.53;;
11086;SDS011;5597;47.588;9.642;2023-05-29T04:06:37;9.57;;;5.00;;
11086;SDS011;5597;47.588;9.642;2023-05-29T04:09:04;7.17;;;5.33;;
11086;SDS011;5597;47.588;9.642;2023-05-29T04:11:32;7.30;;;5.40;;
11086;SDS011;5597;47.588;9.642;2023-05-29T04:13:59;6.77;;;5.33;;
11086;SDS011;5597;47.588;9.642;2023-05-29T04:16:25;7.23;;;5.00;;
11086;SDS011;5597;47.588;9.642;2023-05-29T04:18:52;5.93;;;4.97;;
11086;SDS011;5597;47.588;9.642;2023-05-29T04:21:17;7.60;;;4.60;;
11086;SDS011;5597;47.588;9.642;2023-05-29T04:23:43;5.73;;;4.60;;
11086;SDS011;5597;47.588;9.642;2023-05-29T04:26:08;8.23;;;4.87;;
11086;SDS011;5597;47.588;9.642;2023-05-29T04:28:35;5.93;;;4.60;;
11086;SDS011;5597;47.588;9.642;2023-05-29T04:31:02;6.67;;;5.20;;
11086;SDS011;5597;47.588;9.642;2023-05-29T04:33:28;6.77;;;5.00;;
11086;SDS011;5597;47.588;9.642;2023-05-29T04:35:54;6.60;;;5.13;;
11086;SDS011;5597;47.588;9.642;2023-05-29T04:38:20;6.87;;;5.23;;
11086;SDS011;5597;47.588;9.642;2023-05-29T04:40:50;8.03;;;5.53;;
11086;SDS011;5597;47.588;9.642;2023-05-29T04:43:16;7.07;;;5.10;;
11086;SDS011;5597;47.588;9.642;2023-05-29T04:45:41;6.07;;;4.60;;
11086;SDS011;5597;47.588;9.642;2023-05-29T04:48:07;7.20;;;5.30;;
11086;SDS011;5597;47.588;9.642;2023-05-29T04:50:33;8.13;;;5.50;;
11086;SDS011;5597;47.588;9.642;2023-05-29T04:52:59;7.27;;;5.50;;
11086;SDS011;5597;47.588;9.642;2023-05-29T04:55:25;9.00;;;5.47;;
11086;SDS011;5597;47.588;9.642;2023-05-29T04:57:50;7.73;;;5.50;;
11086;SDS011;5597;47.588;9.642;2023-05-29T05:00:16;6.97;;;5.10;;
11086;SDS011;5597;47.588;9.642;2023-05-29T05:02:43;7.83;;;5.40;;
11086;SDS011;5597;47.588;9.642;2023-05-29T05:05:09;7.57;;;5.30;;
11086;SDS011;5597;47.588;9.642;2023-05-29T05:07:35;7.97;;;5.43;;
11086;SDS011;5597;47.588;9.642;2023-05-29T05:10:02;7.27;;;5.77;;
11086;SDS011;5597;47.588;9.642;2023-05-29T05:12:28;8.73;;;5.70;;
11086;SDS011;5597;47.588;9.642;2023-05-29T05:14:53;8.83;;;5.40;;
11086;SDS011;5597;47.588;9.642;2023-05-29T05:17:19;8.57;;;5.80;;
11086;SDS011;5597;47.588;9.642;2023-05-29T05:19:45;6.47;;;5.30;;
11086;SDS011;5597;47.588;9.642;2023-05-29T05:22:11;6.53;;;4.83;;
11086;SDS011;5597;47.588;9.642;2023-05-29T05:24:36;8.23;;;5.57;;
11086;SDS011;5597;47.588;9.642;2023-05-29T05:27:03;8.07;;;5.53;;
11086;SDS011;5597;47.588;9.642;2023-05-29T05:29:29;7.93;;;5.20;;
11086;SDS011;5597;47.588;9.642;2023-05-29T05:31:55;8.33;;;5.30;;
11086;SDS011;5597;47.588;9.642;2023-05-29T05:34:20;7.10;;;5.23;;
11086;SDS011;5597;47.588;9.642;2023-05-29T05:36:46;8.07;;;5.47;;
11086;SDS011;5597;47.588;9.642;2023-05-29T05:39:11;6.27;;;5.07;;
11086;SDS011;5597;47.588;9.642;2023-05-29T05:41:37;10.40;;;5.77;;
11086;SDS011;5597;47.588;9.642;2023-05-29T05:44:03;6.60;;;4.97;;
11086;SDS011;5597;47.588;9.642;2023-05-29T05:46:28;7.70;;;5.50;;
11086;SDS011;5597;47.588;9.642;2023-05-29T05:48:54;6.67;;;5.70;;
11086;SDS011;5597;47.588;9.642;2023-05-29T05:51:23;7.07;;;5.43;;
11086;SDS011;5597;47.588;9.642;2023-05-29T05:53:49;6.73;;;5.07;;
11086;SDS011;5597;47.588;9.642;2023-05-29T05:56:14;7.63;;;5.13;;
11086;SDS011;5597;47.588;9.642;2023-05-29T05:58:40;7.70;;;5.30;;
11086;SDS011;5597;47.588;9.642;2023-05-29T06:01:06;7.97;;;5.67;;
11086;SDS011;5597;47.588;9.642;2023-05-29T06:03:33;7.47;;;5.10;;
11086;SDS011;5597;47.588;9.642;2023-05-29T06:05:59;6.10;;;4.53;;
11086;SDS011;5597;47.588;9.642;2023-05-29T06:08:25;6.53;;;4.80;;
11086;SDS011;5597;47.588;9.642;2023-05-29T06:10:51;7.23;;;4.87;;
11086;SDS011;5597;47.588;9.642;2023-05-29T06:13:17;6.77;;;4.67;;
11086;SDS011;5597;47.588;9.642;2023-05-29T06:15:43;7.67;;;5.03;;
11086;SDS011;5597;47.588;9.642;2023-05-29T06:18:08;6.23;;;4.40;;
11086;SDS011;5597;47.588;9.642;2023-05-29T06:20:34;5.10;;;4.50;;
11086;SDS011;5597;47.588;9.642;2023-05-29T06:23:00;7.07;;;5.63;;
11086;SDS011;5597;47.588;9.642;2023-05-29T06:25:25;6.53;;;4.70;;
11086;SDS011;5597;47.588;9.642;2023-05-29T06:28:01;6.30;;;4.60;;
11086;SDS011;5597;47.588;9.642;2023-05-29T06:30:27;5.97;;;4.90;;
11086;SDS011;5597;47.588;9.642;2023-05-29T06:32:53;5.40;;;4.77;;
11086;SDS011;5597;47.588;9.642;2023-05-29T06:35:19;6.30;;;4.80;;
11086;SDS011;5597;47.588;9.642;2023-05-29T06:37:45;5.63;;;4.57;;
11086;SDS011;5597;47.588;9.642;2023-05-29T06:40:11;6.10;;;4.37;;
11086;SDS011;5597;47.588;9.642;2023-05-29T06:42:37;7.50;;;4.93;;
11086;SDS011;5597;47.588;9.642;2023-05-29T06:45:03;5.80;;;4.73;;
11086;SDS011;5597;47.588;9.642;2023-05-29T06:47:29;6.63;;;5.17;;
11086;SDS011;5597;47.588;9.642;2023-05-29T06:49:55;7.10;;;5.50;;
11086;SDS011;5597;47.588;9.642;2023-05-29T06:52:20;6.50;;;5.00;;
11086;SDS011;5597;47.588;9.642;2023-05-29T06:54:46;6.73;;;4.87;;
11086;SDS011;5597;47.588;9.642;2023-05-29T06:57:12;6.53;;;4.53;;
11086;SDS011;5597;47.588;9.642;2023-05-29T06:59:37;6.30;;;5.10;;
11086;SDS011;5597;47.588;9.642;2023-05-29T07:02:03;6.60;;;4.67;;
11086;SDS011;5597;47.588;9.642;2023-05-29T07:04:29;6.07;;;5.00;;
11086;SDS011;5597;47.588;9.642;2023-05-29T07:06:54;5.93;;;4.67;;
11086;SDS011;5597;47.588;9.642;2023-05-29T07:09:20;6.50;;;5.67;;
11086;SDS011;5597;47.588;9.642;2023-05-29T07:11:46;6.63;;;5.20;;
11086;SDS011;5597;47.588;9.642;2023-05-29T07:14:11;7.77;;;5.07;;
11086;SDS011;5597;47.588;9.642;2023-05-29T07:16:37;6.03;;;4.83;;
11086;SDS011;5597;47.588;9.642;2023-05-29T07:19:03;5.60;;;4.60;;
11086;SDS011;5597;47.588;9.642;2023-05-29T07:21:29;4.83;;;4.33;;
11086;SDS011;5597;47.588;9.642;2023-05-29T07:23:56;6.20;;;4.33;;
11086;SDS011;5597;47.588;9.642;2023-05-29T07:26:22;8.83;;;5.00;;
11086;SDS011;5597;47.588;9.642;2023-05-29T07:28:48;7.77;;;5.07;;
11086;SDS011;5597;47.588;9.642;2023-05-29T07:31:13;6.97;;;4.70;;
11086;SDS011;5597;47.588;9.642;2023-05-29T07:33:39;5.80;;;4.93;;
11086;SDS011;5597;47.588;9.642;2023-05-29T07:36:06;4.93;;;4.40;;
11086;SDS011;5597;47.588;9.642;2023-05-29T07:38:32;5.60;;;4.43;;
11086;SDS011;5597;47.588;9.642;2023-05-29T07:40:58;6.20;;;4.17;;
11086;SDS011;5597;47.588;9.642;2023-05-29T07:43:23;5.67;;;4.50;;
11086;SDS011;5597;47.588;9.642;2023-05-29T07:45:49;7.03;;;5.00;;
11086;SDS011;5597;47.588;9.642;2023-05-29T07:48:14;5.13;;;4.30;;
11086;SDS011;5597;47.588;9.642;2023-05-29T07:50:40;5.20;;;4.57;;
11086;SDS011;5597;47.588;9.642;2023-05-29T07:53:06;5.93;;;4.67;;
11086;SDS011;5597;47.588;9.642;2023-05-29T07:55:31;5.87;;;4.50;;
11086;SDS011;5597;47.588;9.642;2023-05-29T07:57:58;5.60;;;4.80;;
11086;SDS011;5597;47.588;9.642;2023-05-29T08:00:24;7.50;;;5.40;;
11086;SDS011;5597;47.588;9.642;2023-05-29T08:02:50;6.53;;;5.40;;
11086;SDS011;5597;47.588;9.642;2023-05-29T08:05:16;7.27;;;5.17;;
11086;SDS011;5597;47.588;9.642;2023-05-29T08:07:42;6.63;;;5.17;;
11086;SDS011;5597;47.588;9.642;2023-05-29T08:10:09;5.87;;;4.93;;
11086;SDS011;5597;47.588;9.642;2023-05-29T08:12:35;6.73;;;5.23;;
11086;SDS011;5597;47.588;9.642;2023-05-29T08:15:01;8.00;;;5.87;;
11086;SDS011;5597;47.588;9.642;2023-05-29T08:17:27;7.33;;;6.03;;
11086;SDS011;5597;47.588;9.642;2023-05-29T08:19:53;6.63;;;5.13;;
11086;SDS011;5597;47.588;9.642;2023-05-29T08:22:19;6.20;;;5.10;;
11086;SDS011;5597;47.588;9.642;2023-05-29T08:24:44;7.90;;;5.57;;
11086;SDS011;5597;47.588;9.642;2023-05-29T08:27:10;7.40;;;5.97;;
11086;SDS011;5597;47.588;9.642;2023-05-29T08:29:35;7.10;;;4.77;;
11086;SDS011;5597;47.588;9.642;2023-05-29T08:32:03;7.70;;;5.53;;
11086;SDS011;5597;47.588;9.642;2023-05-29T08:34:29;7.93;;;5.90;;
11086;SDS011;5597;47.588;9.642;2023-05-29T08:36:55;7.77;;;5.30;;
11086;SDS011;5597;47.588;9.642;2023-05-29T08:39:21;7.73;;;6.03;;
11086;SDS011;5597;47.588;9.642;2023-05-29T08:44:30;7.30;;;5.57;;
11086;SDS011;5597;47.588;9.642;2023-05-29T08:47:02;6.00;;;5.33;;
11086;SDS011;5597;47.588;9.642;2023-05-29T08:49:29;6.87;;;5.30;;
11086;SDS011;5597;47.588;9.642;2023-05-29T08:52:02;6.37;;;5.40;;
11086;SDS011;5597;47.588;9.642;2023-05-29T08:54:36;7.67;;;6.23;;
11086;SDS011;5597;47.588;9.642;2023-05-29T08:57:02;8.73;;;6.30;;
11086;SDS011;5597;47.588;9.642;2023-05-29T08:59:29;6.63;;;5.37;;
11086;SDS011;5597;47.588;9.642;2023-05-29T09:01:56;6.80;;;5.20;;
11086;SDS011;5597;47.588;9.642;2023-05-29T09:04:21;8.10;;;6.23;;
11086;SDS011;5597;47.588;9.642;2023-05-29T09:06:48;10.27;;;6.17;;
11086;SDS011;5597;47.588;9.642;2023-05-29T09:09:17;6.87;;;5.53;;
11086;SDS011;5597;47.588;9.642;2023-05-29T09:11:43;7.60;;;5.93;;
11086;SDS011;5597;47.588;9.642;2023-05-29T09:17:04;7.43;;;5.77;;
11086;SDS011;5597;47.588;9.642;2023-05-29T09:19:31;6.07;;;5.30;;
11086;SDS011;5597;47.588;9.642;2023-05-29T09:22:04;8.47;;;5.83;;
11086;SDS011;5597;47.588;9.642;2023-05-29T09:24:40;6.37;;;5.70;;
11086;SDS011;5597;47.588;9.642;2023-05-29T09:27:07;7.37;;;5.77;;
11086;SDS011;5597;47.588;9.642;2023-05-29T09:29:40;6.13;;;5.23;;
11086;SDS011;5597;47.588;9.642;2023-05-29T09:32:11;6.67;;;5.47;;
11086;SDS011;5597;47.588;9.642;2023-05-29T09:34:39;7.57;;;5.60;;
11086;SDS011;5597;47.588;9.642;2023-05-29T09:37:06;6.40;;;5.43;;
11086;SDS011;5597;47.588;9.642;2023-05-29T09:39:54;6.80;;;5.50;;
11086;SDS011;5597;47.588;9.642;2023-05-29T09:42:19;8.40;;;5.50;;
11086;SDS011;5597;47.588;9.642;2023-05-29T09:44:46;8.73;;;5.80;;
11086;SDS011;5597;47.588;9.642;2023-05-29T09:47:16;6.53;;;5.33;;
11086;SDS011;5597;47.588;9.642;2023-05-29T09:49:42;7.63;;;5.50;;
11086;SDS011;5597;47.588;9.642;2023-05-29T09:52:12;7.27;;;5.70;;
11086;SDS011;5597;47.588;9.642;2023-05-29T09:54:42;7.20;;;5.50;;
11086;SDS011;5597;47.588;9.642;2023-05-29T09:57:14;5.80;;;4.70;;
11086;SDS011;5597;47.588;9.642;2023-05-29T09:59:45;6.13;;;5.03;;
11086;SDS011;5597;47.588;9.642;2023-05-29T10:02:16;6.10;;;5.07;;
11086;SDS011;5597;47.588;9.642;2023-05-29T10:04:41;6.00;;;5.37;;
11086;SDS011;5597;47.588;9.642;2023-05-29T10:09:54;5.43;;;4.70;;
11086;SDS011;5597;47.588;9.642;2023-05-29T10:12:37;6.43;;;5.00;;
11086;SDS011;5597;47.588;9.642;2023-05-29T10:15:14;5.00;;;4.00;;
11086;SDS011;5597;47.588;9.642;2023-05-29T10:17:45;4.93;;;4.17;;
11086;SDS011;5597;47.588;9.642;2023-05-29T10:20:16;5.77;;;3.90;;
11086;SDS011;5597;47.588;9.642;2023-05-29T10:22:45;5.27;;;4.30;;
11086;SDS011;5597;47.588;9.642;2023-05-29T10:25:13;4.83;;;4.30;;
11086;SDS011;5597;47.588;9.642;2023-05-29T10:27:40;4.40;;;4.00;;
11086;SDS011;5597;47.588;9.642;2023-05-29T10:30:13;5.73;;;4.40;;
11086;SDS011;5597;47.588;9.642;2023-05-29T10:33:03;5.47;;;4.33;;
11086;SDS011;5597;47.588;9.642;2023-05-29T10:38:20;5.23;;;4.13;;
11086;SDS011;5597;47.588;9.642;2023-05-29T10:40:46;5.70;;;4.37;;
11086;SDS011;5597;47.588;9.642;2023-05-29T10:43:34;5.27;;;4.53;;
11086;SDS011;5597;47.588;9.642;2023-05-29T10:46:00;4.53;;;4.00;;
11086;SDS011;5597;47.588;9.642;2023-05-29T10:50:55;6.13;;;4.57;;
11086;SDS011;5597;47.588;9.642;2023-05-29T10:53:24;6.03;;;4.60;;
11086;SDS011;5597;47.588;9.642;2023-05-29T10:55:55;5.30;;;4.17;;
11086;SDS011;5597;47.588;9.642;2023-05-29T10:58:22;5.00;;;4.50;;
11086;SDS011;5597;47.588;9.642;2023-05-29T11:00:49;7.60;;;4.70;;
11086;SDS011;5597;47.588;9.642;2023-05-29T11:03:20;6.00;;;4.50;;
11086;SDS011;5597;47.588;9.642;2023-05-29T11:05:58;6.13;;;4.60;;
11086;SDS011;5597;47.588;9.642;2023-05-29T11:08:43;6.83;;;4.40;;
11086;SDS011;5597;47.588;9.642;2023-05-29T11:11:13;6.63;;;4.40;;
11086;SDS011;5597;47.588;9.642;2023-05-29T11:13:40;7.97;;;4.80;;
11086;SDS011;5597;47.588;9.642;2023-05-29T11:16:10;5.60;;;4.70;;
11086;SDS011;5597;47.588;9.642;2023-05-29T11:18:46;6.07;;;4.80;;
11086;SDS011;5597;47.588;9.642;2023-05-29T11:24:00;7.10;;;5.10;;
11086;SDS011;5597;47.588;9.642;2023-05-29T11:26:31;6.93;;;4.50;;
11086;SDS011;5597;47.588;9.642;2023-05-29T11:29:00;5.37;;;4.37;;
11086;SDS011;5597;47.588;9.642;2023-05-29T11:31:32;7.00;;;4.47;;
11086;SDS011;5597;47.588;9.642;2023-05-29T11:34:00;6.30;;;4.93;;
11086;SDS011;5597;47.588;9.642;2023-05-29T11:36:30;5.30;;;4.40;;
11086;SDS011;5597;47.588;9.642;2023-05-29T11:38:57;9.00;;;4.73;;
11086;SDS011;5597;47.588;9.642;2023-05-29T11:41:23;6.83;;;4.40;;
11086;SDS011;5597;47.588;9.642;2023-05-29T11:43:59;7.00;;;4.53;;
11086;SDS011;5597;47.588;9.642;2023-05-29T11:46:30;6.43;;;4.73;;
11086;SDS011;5597;47.588;9.642;2023-05-29T11:48:57;4.63;;;3.97;;
11086;SDS011;5597;47.588;9.642;2023-05-29T11:51:23;5.97;;;4.40;;
11086;SDS011;5597;47.588;9.642;2023-05-29T11:53:49;5.77;;;4.50;;
11086;SDS011;5597;47.588;9.642;2023-05-29T11:56:18;5.27;;;4.73;;
11086;SDS011;5597;47.588;9.642;2023-05-29T11:58:43;5.03;;;4.53;;
11086;SDS011;5597;47.588;9.642;2023-05-29T12:01:10;5.73;;;4.13;;
11086;SDS011;5597;47.588;9.642;2023-05-29T12:03:40;5.17;;;4.40;;
11086;SDS011;5597;47.588;9.642;2023-05-29T12:06:06;5.10;;;4.20;;
11086;SDS011;5597;47.588;9.642;2023-05-29T12:08:33;7.83;;;4.63;;
11086;SDS011;5597;47.588;9.642;2023-05-29T12:10:59;4.90;;;4.27;;
11086;SDS011;5597;47.588;9.642;2023-05-29T12:13:25;5.27;;;4.40;;
11086;SDS011;5597;47.588;9.642;2023-05-29T12:15:52;5.87;;;4.60;;
11086;SDS011;5597;47.588;9.642;2023-05-29T12:18:20;4.90;;;4.40;;
11086;SDS011;5597;47.588;9.642;2023-05-29T12:20:46;5.13;;;4.40;;
11086;SDS011;5597;47.588;9.642;2023-05-29T12:23:11;4.83;;;4.33;;
11086;SDS011;5597;47.588;9.642;2023-05-29T12:25:37;7.70;;;4.53;;
11086;SDS011;5597;47.588;9.642;2023-05-29T12:28:03;6.00;;;4.67;;
11086;SDS011;5597;47.588;9.642;2023-05-29T12:30:29;7.70;;;4.70;;
11086;SDS011;5597;47.588;9.642;2023-05-29T12:32:55;5.57;;;4.30;;
11086;SDS011;5597;47.588;9.642;2023-05-29T12:35:22;6.60;;;4.60;;
11086;SDS011;5597;47.588;9.642;2023-05-29T12:38:02;7.47;;;4.83;;
11086;SDS011;5597;47.588;9.642;2023-05-29T12:40:33;6.23;;;4.67;;
11086;SDS011;5597;47.588;9.642;2023-05-29T12:45:29;6.13;;;4.80;;
11086;SDS011;5597;47.588;9.642;2023-05-29T12:48:04;5.13;;;4.30;;
11086;SDS011;5597;47.588;9.642;2023-05-29T12:50:32;6.13;;;4.60;;
11086;SDS011;5597;47.588;9.642;2023-05-29T12:53:11;5.13;;;4.37;;
11086;SDS011;5597;47.588;9.642;2023-05-29T12:55:39;5.63;;;4.63;;
11086;SDS011;5597;47.588;9.642;2023-05-29T12:58:06;5.20;;;4.27;;
11086;SDS011;5597;47.588;9.642;2023-05-29T13:00:34;6.27;;;4.70;;
11086;SDS011;5597;47.588;9.642;2023-05-29T13:03:01;6.00;;;4.23;;
11086;SDS011;5597;47.588;9.642;2023-05-29T13:05:27;6.07;;;4.43;;
11086;SDS011;5597;47.588;9.642;2023-05-29T13:07:52;5.10;;;4.10;;
11086;SDS011;5597;47.588;9.642;2023-05-29T13:10:19;4.97;;;4.17;;
11086;SDS011;5597;47.588;9.642;2023-05-29T13:12:45;7.00;;;4.67;;
11086;SDS011;5597;47.588;9.642;2023-05-29T13:15:12;6.00;;;4.73;;
11086;SDS011;5597;47.588;9.642;2023-05-29T13:17:38;6.60;;;4.43;;
11086;SDS011;5597;47.588;9.642;2023-05-29T13:20:07;4.93;;;4.40;;
11086;SDS011;5597;47.588;9.642;2023-05-29T13:22:40;6.53;;;4.67;;
11086;SDS011;5597;47.588;9.642;2023-05-29T13:25:07;4.53;;;4.13;;
11086;SDS011;5597;47.588;9.642;2023-05-29T13:27:34;4.73;;;4.10;;
11086;SDS011;5597;47.588;9.642;2023-05-29T13:30:02;5.27;;;3.97;;
11086;SDS011;5597;47.588;9.642;2023-05-29T13:32:29;5.67;;;4.20;;
11086;SDS011;5597;47.588;9.642;2023-05-29T13:34:55;5.63;;;4.33;;
11086;SDS011;5597;47.588;9.642;2023-05-29T13:37:21;5.97;;;4.00;;
11086;SDS011;5597;47.588;9.642;2023-05-29T13:39:46;4.83;;;4.13;;
11086;SDS011;5597;47.588;9.642;2023-05-29T13:42:12;5.67;;;4.50;;
11086;SDS011;5597;47.588;9.642;2023-05-29T13:44:38;6.47;;;3.97;;
11086;SDS011;5597;47.588;9.642;2023-05-29T13:47:04;6.37;;;4.33;;
11086;SDS011;5597;47.588;9.642;2023-05-29T13:49:30;6.20;;;4.37;;
11086;SDS011;5597;47.588;9.642;2023-05-29T13:51:56;5.03;;;4.53;;
11086;SDS011;5597;47.588;9.642;2023-05-29T13:54:22;6.10;;;4.27;;
11086;SDS011;5597;47.588;9.642;2023-05-29T13:56:48;5.43;;;4.37;;
11086;SDS011;5597;47.588;9.642;2023-05-29T13:59:14;4.57;;;4.10;;
11086;SDS011;5597;47.588;9.642;2023-05-29T14:01:40;5.13;;;4.40;;
11086;SDS011;5597;47.588;9.642;2023-05-29T14:04:05;5.20;;;3.90;;
11086;SDS011;5597;47.588;9.642;2023-05-29T14:06:32;7.10;;;4.20;;
11086;SDS011;5597;47.588;9.642;2023-05-29T14:08:58;4.60;;;4.03;;
11086;SDS011;5597;47.588;9.642;2023-05-29T14:11:24;5.47;;;4.07;;
11086;SDS011;5597;47.588;9.642;2023-05-29T14:13:53;5.23;;;4.20;;
11086;SDS011;5597;47.588;9.642;2023-05-29T14:16:18;5.43;;;4.13;;
11086;SDS011;5597;47.588;9.642;2023-05-29T14:18:44;4.43;;;3.87;;
11086;SDS011;5597;47.588;9.642;2023-05-29T14:21:10;5.77;;;3.87;;
11086;SDS011;5597;47.588;9.642;2023-05-29T14:23:36;6.03;;;4.43;;
11086;SDS011;5597;47.588;9.642;2023-05-29T14:26:02;5.90;;;4.13;;
11086;SDS011;5597;47.588;9.642;2023-05-29T14:28:27;5.80;;;4.07;;
11086;SDS011;5597;47.588;9.642;2023-05-29T14:30:53;8.07;;;4.13;;
11086;SDS011;5597;47.588;9.642;2023-05-29T14:33:19;7.60;;;4.23;;
11086;SDS011;5597;47.588;9.642;2023-05-29T14:35:44;5.77;;;4.33;;
11086;SDS011;5597;47.588;9.642;2023-05-29T14:38:10;6.07;;;4.00;;
11086;SDS011;5597;47.588;9.642;2023-05-29T14:40:35;4.93;;;4.07;;
11086;SDS011;5597;47.588;9.642;2023-05-29T14:43:02;6.07;;;4.27;;
11086;SDS011;5597;47.588;9.642;2023-05-29T14:45:28;4.73;;;4.20;;
11086;SDS011;5597;47.588;9.642;2023-05-29T14:47:53;4.43;;;3.57;;
11086;SDS011;5597;47.588;9.642;2023-05-29T14:50:19;4.60;;;4.20;;
11086;SDS011;5597;47.588;9.642;2023-05-29T14:52:45;4.13;;;3.60;;
11086;SDS011;5597;47.588;9.642;2023-05-29T14:55:12;5.20;;;3.90;;
11086;SDS011;5597;47.588;9.642;2023-05-29T14:57:40;5.00;;;3.60;;
11086;SDS011;5597;47.588;9.642;2023-05-29T15:00:06;5.37;;;3.90;;
11086;SDS011;5597;47.588;9.642;2023-05-29T15:02:32;6.83;;;3.73;;
11086;SDS011;5597;47.588;9.642;2023-05-29T15:04:58;5.90;;;4.13;;
11086;SDS011;5597;47.588;9.642;2023-05-29T15:07:23;4.57;;;3.70;;
11086;SDS011;5597;47.588;9.642;2023-05-29T15:09:49;4.07;;;3.67;;
11086;SDS011;5597;47.588;9.642;2023-05-29T15:12:15;4.90;;;3.83;;
11086;SDS011;5597;47.588;9.642;2023-05-29T15:14:40;4.13;;;3.50;;
11086;SDS011;5597;47.588;9.642;2023-05-29T15:17:06;3.97;;;3.40;;
11086;SDS011;5597;47.588;9.642;2023-05-29T15:19:31;4.33;;;3.73;;
11086;SDS011;5597;47.588;9.642;2023-05-29T15:21:57;5.27;;;4.00;;
11086;SDS011;5597;47.588;9.642;2023-05-29T15:24:23;5.47;;;3.80;;
11086;SDS011;5597;47.588;9.642;2023-05-29T15:26:49;4.30;;;3.90;;
11086;SDS011;5597;47.588;9.642;2023-05-29T15:29:15;4.47;;;3.87;;
11086;SDS011;5597;47.588;9.642;2023-05-29T15:31:41;4.90;;;3.60;;
11086;SDS011;5597;47.588;9.642;2023-05-29T15:34:06;3.87;;;3.33;;